createdAt,value
2022-07-31T00:00:31.833Z,96.80
2022-07-31T00:03:05.021Z,97.20
2022-07-31T00:05:41.587Z,97.80
2022-07-31T00:08:15.024Z,98.40
2022-07-31T00:10:48.160Z,99.00
2022-07-31T00:13:57.690Z,99.80
2022-07-31T00:16:14.356Z,99.90
2022-07-31T00:18:50.363Z,99.90
2022-07-31T00:21:23.403Z,99.90
2022-07-31T00:23:56.338Z,99.90
2022-07-31T00:26:29.539Z,99.90
2022-07-31T00:29:02.436Z,99.90
2022-07-31T00:31:35.502Z,99.90
2022-07-31T00:34:11.980Z,99.90
2022-07-31T00:36:45.146Z,99.90
2022-07-31T00:39:18.138Z,99.90
2022-07-31T00:41:51.326Z,99.90
2022-07-31T00:44:24.232Z,99.90
2022-07-31T00:46:59.353Z,99.90
2022-07-31T00:49:37.541Z,99.90
2022-07-31T00:52:11.552Z,99.90
2022-07-31T00:54:44.497Z,99.90
2022-07-31T00:59:50.650Z,99.90
2022-07-31T01:02:24.026Z,99.90
2022-07-31T01:04:56.924Z,99.90
2022-07-31T01:07:30.001Z,99.90
2022-07-31T01:10:08.093Z,99.90
2022-07-31T01:12:54.227Z,99.90
2022-07-31T01:15:28.285Z,99.90
2022-07-31T01:18:01.664Z,99.90
2022-07-31T01:20:35.105Z,99.90
2022-07-31T01:27:01.551Z,99.90
2022-07-31T01:29:44.201Z,99.90
2022-07-31T01:32:48.404Z,99.90
2022-07-31T01:35:32.694Z,99.90
2022-07-31T01:38:10.532Z,99.90
2022-07-31T01:40:48.263Z,99.90
2022-07-31T01:46:02.576Z,99.90
2022-07-31T01:48:36.483Z,99.90
2022-07-31T01:51:11.406Z,99.90
2022-07-31T01:53:46.666Z,99.90
2022-07-31T01:56:21.370Z,99.90
2022-07-31T01:58:55.785Z,99.90
2022-07-31T02:01:43.855Z,99.90
2022-07-31T02:04:20.613Z,99.90
2022-07-31T02:06:54.925Z,99.90
2022-07-31T02:09:29.190Z,99.90
2022-07-31T02:12:04.761Z,99.90
2022-07-31T02:14:43.708Z,99.90
2022-07-31T02:17:22.285Z,99.90
2022-07-31T02:20:15.916Z,99.90
2022-07-31T02:22:48.983Z,99.90
2022-07-31T02:25:22.151Z,99.90
2022-07-31T02:27:59.155Z,99.90
2022-07-31T02:30:39.145Z,99.90
2022-07-31T02:33:22.643Z,99.90
2022-07-31T02:35:56.757Z,99.90
2022-07-31T02:38:30.750Z,99.90
2022-07-31T02:41:05.397Z,99.90
2022-07-31T02:43:39.318Z,99.90
2022-07-31T02:46:23.071Z,99.90
2022-07-31T02:48:57.803Z,99.90
2022-07-31T02:51:42.514Z,99.90
2022-07-31T02:54:18.283Z,99.90
2022-07-31T02:56:52.499Z,99.90
2022-07-31T02:59:25.784Z,99.90
2022-07-31T03:02:06.222Z,99.90
2022-07-31T03:04:45.795Z,99.90
2022-07-31T03:07:18.799Z,99.90
2022-07-31T03:09:52.513Z,99.90
2022-07-31T03:12:50.421Z,99.90
2022-07-31T03:15:26.611Z,99.90
2022-07-31T03:18:00.756Z,99.90
2022-07-31T03:20:41.541Z,99.90
2022-07-31T03:23:15.823Z,99.90
2022-07-31T03:25:58.441Z,99.90
2022-07-31T03:28:33.221Z,99.90
2022-07-31T03:31:07.975Z,99.90
2022-07-31T03:33:42.804Z,99.90
2022-07-31T03:36:16.231Z,99.90
2022-07-31T03:38:50.781Z,99.90
2022-07-31T03:41:51.110Z,99.90
2022-07-31T03:44:26.015Z,99.90
2022-07-31T03:46:59.979Z,99.90
2022-07-31T03:49:33.720Z,99.90
2022-07-31T03:52:11.718Z,99.90
2022-07-31T03:54:45.568Z,99.90
2022-07-31T03:57:31.096Z,99.90
2022-07-31T04:00:07.395Z,99.90
2022-07-31T04:02:50.550Z,99.90
2022-07-31T04:05:58.923Z,99.90
2022-07-31T04:08:31.947Z,99.90
2022-07-31T04:11:05.139Z,99.90
2022-07-31T04:13:38.203Z,99.90
2022-07-31T04:16:11.262Z,99.90
2022-07-31T04:18:48.514Z,99.90
2022-07-31T04:21:24.047Z,99.90
2022-07-31T04:23:57.239Z,99.90
2022-07-31T04:26:58.062Z,99.90
2022-07-31T04:29:38.105Z,99.90
2022-07-31T04:32:11.554Z,99.90
2022-07-31T04:34:54.037Z,99.90
2022-07-31T04:37:27.095Z,99.90
2022-07-31T04:40:00.047Z,99.90
2022-07-31T04:42:33.193Z,99.90
2022-07-31T04:45:07.525Z,99.90
2022-07-31T04:47:40.586Z,99.90
2022-07-31T04:50:13.715Z,99.90
2022-07-31T04:53:01.264Z,99.90
2022-07-31T04:55:39.564Z,99.90
2022-07-31T04:58:12.451Z,99.90
2022-07-31T05:00:45.440Z,99.90
2022-07-31T05:03:18.375Z,99.90
2022-07-31T05:05:51.248Z,99.90
2022-07-31T05:08:24.321Z,99.90
2022-07-31T05:11:15.891Z,99.90
2022-07-31T05:13:54.854Z,99.90
2022-07-31T05:16:29.420Z,99.90
2022-07-31T05:19:04.518Z,99.90
2022-07-31T05:22:01.741Z,99.90
2022-07-31T05:25:01.631Z,99.90
2022-07-31T05:27:39.164Z,99.90
2022-07-31T05:30:14.573Z,99.90
2022-07-31T05:32:47.739Z,99.90
2022-07-31T05:35:22.066Z,99.90
2022-07-31T05:37:55.494Z,99.90
2022-07-31T05:40:42.621Z,99.90
2022-07-31T05:43:34.476Z,99.90
2022-07-31T05:46:17.253Z,99.90
2022-07-31T05:48:51.582Z,99.90
2022-07-31T05:51:25.916Z,99.90
2022-07-31T05:53:58.937Z,99.90
2022-07-31T05:56:50.211Z,99.90
2022-07-31T05:59:27.000Z,99.90
2022-07-31T06:02:00.199Z,99.90
2022-07-31T06:04:34.209Z,99.90
2022-07-31T06:07:07.185Z,99.90
2022-07-31T06:09:40.209Z,99.90
2022-07-31T06:12:13.100Z,99.90
2022-07-31T06:14:46.338Z,99.90
2022-07-31T06:17:40.417Z,99.90
2022-07-31T06:20:29.533Z,99.90
2022-07-31T06:23:02.521Z,99.90
2022-07-31T06:25:53.925Z,99.90
2022-07-31T06:28:38.876Z,99.90
2022-07-31T06:31:21.819Z,99.90
2022-07-31T06:33:57.391Z,99.90
2022-07-31T06:36:35.088Z,99.90
2022-07-31T06:39:09.576Z,99.90
2022-07-31T06:41:49.499Z,99.90
2022-07-31T06:44:35.077Z,99.90
2022-07-31T06:47:24.151Z,99.90
2022-07-31T06:50:12.049Z,99.90
2022-07-31T06:52:51.399Z,99.90
2022-07-31T06:55:24.369Z,99.90
2022-07-31T06:57:57.547Z,99.90
2022-07-31T07:00:30.590Z,99.90
2022-07-31T07:03:03.531Z,99.90
2022-07-31T07:05:37.472Z,99.90
2022-07-31T07:08:10.488Z,99.90
2022-07-31T07:10:43.687Z,99.90
2022-07-31T07:13:45.817Z,99.90
2022-07-31T07:16:19.968Z,99.90
2022-07-31T07:18:53.351Z,99.90
2022-07-31T07:21:29.448Z,99.90
2022-07-31T07:24:02.358Z,99.90
2022-07-31T07:27:03.679Z,99.90
2022-07-31T07:29:36.686Z,99.90
2022-07-31T07:32:12.934Z,99.90
2022-07-31T07:34:45.904Z,99.90
2022-07-31T07:37:38.954Z,99.90
2022-07-31T07:40:12.485Z,99.90
2022-07-31T07:42:45.733Z,99.90
2022-07-31T07:45:19.877Z,99.90
2022-07-31T07:48:06.603Z,99.90
2022-07-31T07:50:53.983Z,99.90
2022-07-31T07:53:50.031Z,99.90
2022-07-31T07:56:37.975Z,99.90
2022-07-31T07:59:26.248Z,99.90
2022-07-31T08:02:19.397Z,98.80
2022-07-31T08:04:53.548Z,98.30
2022-07-31T08:07:42.380Z,98.50
2022-07-31T08:10:36.285Z,97.20
2022-07-31T08:13:49.784Z,98.40
2022-07-31T08:16:48.691Z,97.80
2022-07-31T08:19:21.762Z,99.90
2022-07-31T08:21:54.899Z,99.70
2022-07-31T08:24:27.894Z,98.60
2022-07-31T08:27:21.585Z,97.90
2022-07-31T08:29:57.385Z,97.80
2022-07-31T08:32:30.324Z,96.80
2022-07-31T08:35:21.768Z,97.10
2022-07-31T08:38:03.102Z,96.80
2022-07-31T08:40:44.306Z,96.60
2022-07-31T08:44:00.168Z,95.80
2022-07-31T08:46:13.024Z,95.50
2022-07-31T08:48:47.139Z,94.90
2022-07-31T08:51:22.683Z,95.00
2022-07-31T08:54:22.913Z,99.90
2022-07-31T08:56:56.154Z,99.50
2022-07-31T08:59:29.665Z,98.70
2022-07-31T09:02:02.886Z,99.90
2022-07-31T09:04:40.153Z,99.90
2022-07-31T09:07:15.972Z,99.90
2022-07-31T09:09:51.502Z,99.90
2022-07-31T09:12:34.244Z,99.90
2022-07-31T09:20:30.469Z,88.80
2022-07-31T09:23:05.728Z,89.40
2022-07-31T09:25:58.004Z,88.80
2022-07-31T09:28:34.916Z,88.30
2022-07-31T09:31:09.979Z,86.50
2022-07-31T09:34:03.739Z,86.20
2022-07-31T09:36:36.782Z,87.10
2022-07-31T09:39:27.587Z,86.40
2022-07-31T09:42:16.840Z,87.60
2022-07-31T09:45:24.212Z,85.30
2022-07-31T09:48:13.771Z,85.80
2022-07-31T09:50:59.645Z,86.60
2022-07-31T09:53:47.535Z,86.10
2022-07-31T09:56:39.154Z,85.20
2022-07-31T09:59:12.527Z,85.60
2022-07-31T10:01:51.441Z,84.50
2022-07-31T10:04:25.253Z,85.10
2022-07-31T10:06:59.189Z,84.80
2022-07-31T10:09:33.167Z,84.60
2022-07-31T10:12:40.917Z,85.60
2022-07-31T10:15:16.514Z,83.40
2022-07-31T10:17:54.450Z,83.10
2022-07-31T10:20:59.193Z,83.50
2022-07-31T10:23:54.073Z,82.40
2022-07-31T10:26:50.654Z,82.70
2022-07-31T10:29:21.493Z,81.90
2022-07-31T10:31:55.414Z,81.30
2022-07-31T10:34:29.083Z,78.70
2022-07-31T10:37:47.154Z,77.80
2022-07-31T10:40:54.241Z,79.90
2022-07-31T10:43:29.252Z,78.00
2022-07-31T10:46:35.338Z,78.30
2022-07-31T10:49:43.607Z,78.10
2022-07-31T10:52:45.681Z,77.80
2022-07-31T10:55:25.346Z,79.00
2022-07-31T10:58:33.673Z,76.80
2022-07-31T11:01:31.263Z,77.40
2022-07-31T11:04:30.559Z,77.70
2022-07-31T11:07:21.091Z,75.90
2022-07-31T11:10:20.368Z,76.80
2022-07-31T11:13:11.894Z,74.40
2022-07-31T11:16:10.967Z,73.30
2022-07-31T11:19:04.695Z,73.40
2022-07-31T11:21:40.563Z,70.70
2022-07-31T11:24:23.956Z,71.60
2022-07-31T11:26:58.364Z,70.50
2022-07-31T11:30:00.626Z,70.60
2022-07-31T11:32:26.899Z,70.70
2022-07-31T11:34:59.971Z,68.80
2022-07-31T11:37:46.439Z,70.50
2022-07-31T11:40:27.712Z,68.80
2022-07-31T11:45:55.433Z,66.50
2022-07-31T11:48:38.263Z,75.90
2022-07-31T11:51:18.671Z,74.70
2022-07-31T11:53:57.322Z,69.90
2022-07-31T11:56:30.953Z,68.80
2022-07-31T11:59:04.493Z,69.80
2022-07-31T12:01:40.757Z,68.80
2022-07-31T12:04:19.398Z,69.70
2022-07-31T12:06:58.612Z,80.30
2022-07-31T12:10:00.977Z,80.00
2022-07-31T12:12:27.397Z,78.40
2022-07-31T12:15:00.546Z,79.40
2022-07-31T12:17:33.442Z,81.30
2022-07-31T12:20:34.501Z,81.00
2022-07-31T12:23:40.819Z,81.60
2022-07-31T12:26:03.232Z,79.90
2022-07-31T12:28:36.281Z,78.10
2022-07-31T12:31:09.467Z,79.90
2022-07-31T12:33:45.814Z,81.10
2022-07-31T12:36:19.441Z,80.40
2022-07-31T12:39:12.187Z,80.20
2022-07-31T12:41:47.775Z,80.10
2022-07-31T12:44:22.122Z,78.70
2022-07-31T12:46:55.432Z,81.10
2022-07-31T12:49:28.550Z,78.00
2022-07-31T12:52:01.677Z,81.10
2022-07-31T12:54:39.190Z,79.80
2022-07-31T12:57:13.390Z,78.70
2022-07-31T12:59:48.655Z,80.90
2022-07-31T13:02:23.181Z,81.00
2022-07-31T13:05:04.708Z,81.50
2022-07-31T13:07:37.716Z,82.80
2022-07-31T13:10:19.045Z,81.70
2022-07-31T13:12:58.032Z,82.80
2022-07-31T13:15:31.556Z,82.40
2022-07-31T13:18:05.177Z,80.60
2022-07-31T13:20:41.600Z,80.60
2022-07-31T13:23:18.631Z,79.80
2022-07-31T13:25:54.161Z,82.70
2022-07-31T13:28:27.336Z,85.40
2022-07-31T13:31:00.216Z,87.70
2022-07-31T13:33:33.365Z,86.70
2022-07-31T13:36:06.512Z,89.20
2022-07-31T13:38:39.647Z,89.60
2022-07-31T13:41:23.929Z,89.20
2022-07-31T13:43:59.652Z,89.10
2022-07-31T13:46:35.666Z,89.40
2022-07-31T13:49:09.306Z,89.20
2022-07-31T13:51:42.621Z,89.00
2022-07-31T13:54:16.428Z,88.30
2022-07-31T13:56:49.520Z,89.10
2022-07-31T13:59:22.806Z,90.60
2022-07-31T14:02:03.406Z,87.40
2022-07-31T14:04:46.213Z,88.80
2022-07-31T14:07:19.285Z,87.60
2022-07-31T14:09:57.838Z,88.10
2022-07-31T14:12:36.601Z,87.50
2022-07-31T14:15:15.300Z,88.80
2022-07-31T14:17:50.994Z,89.00
2022-07-31T14:20:24.364Z,87.60
2022-07-31T14:22:57.642Z,87.70
2022-07-31T14:25:40.218Z,86.90
2022-07-31T14:28:22.094Z,87.10
2022-07-31T14:30:58.800Z,88.90
2022-07-31T14:33:31.980Z,88.50
2022-07-31T14:36:06.477Z,87.70
2022-07-31T14:38:39.837Z,87.20
2022-07-31T14:41:13.348Z,88.00
2022-07-31T14:43:46.520Z,88.40
2022-07-31T14:46:19.614Z,85.90
2022-07-31T14:48:52.809Z,81.00
2022-07-31T14:51:25.820Z,80.00
2022-07-31T14:53:59.640Z,78.50
2022-07-31T14:56:58.890Z,77.60
2022-07-31T14:59:25.368Z,77.60
2022-07-31T15:01:58.826Z,78.70
2022-07-31T15:04:32.326Z,76.60
2022-07-31T15:07:32.318Z,76.10
2022-07-31T15:09:58.370Z,73.90
2022-07-31T15:12:31.920Z,75.80
2022-07-31T15:15:06.393Z,74.40
2022-07-31T15:17:39.451Z,74.50
2022-07-31T15:20:13.157Z,73.10
2022-07-31T15:22:46.218Z,75.70
2022-07-31T15:25:19.421Z,75.30
2022-07-31T15:27:52.435Z,76.70
2022-07-31T15:30:25.647Z,76.70
2022-07-31T15:32:58.826Z,75.60
2022-07-31T15:35:32.130Z,77.90
2022-07-31T15:38:05.341Z,77.90
2022-07-31T15:40:38.640Z,76.60
2022-07-31T15:43:11.653Z,77.80
2022-07-31T15:45:44.862Z,77.60
2022-07-31T15:48:19.705Z,77.50
2022-07-31T15:50:52.852Z,76.90
2022-07-31T15:53:29.832Z,77.00
2022-07-31T15:56:12.410Z,76.00
2022-07-31T15:58:45.365Z,75.40
2022-07-31T16:01:18.825Z,75.30
2022-07-31T16:03:53.413Z,77.40
2022-07-31T16:06:27.992Z,76.00
2022-07-31T16:09:05.203Z,80.40
2022-07-31T16:12:04.105Z,76.90
2022-07-31T16:14:31.454Z,75.90
2022-07-31T16:17:04.806Z,76.60
2022-07-31T16:19:38.063Z,76.70
2022-07-31T16:22:11.621Z,77.20
2022-07-31T16:24:44.715Z,77.70
2022-07-31T16:27:17.890Z,78.10
2022-07-31T16:30:00.951Z,76.60
2022-07-31T16:32:34.996Z,78.10
2022-07-31T16:35:09.092Z,77.50
2022-07-31T16:37:50.183Z,79.00
2022-07-31T16:40:30.028Z,79.00
2022-07-31T16:43:47.653Z,79.20
2022-07-31T16:46:00.070Z,80.30
2022-07-31T16:48:32.979Z,80.30
2022-07-31T16:51:06.588Z,80.10
2022-07-31T16:54:14.684Z,80.40
2022-07-31T16:56:32.931Z,80.30
2022-07-31T16:59:07.016Z,79.50
2022-07-31T17:01:53.881Z,79.60
2022-07-31T17:04:33.929Z,78.60
2022-07-31T17:07:07.609Z,80.00
2022-07-31T17:09:41.176Z,82.70
2022-07-31T17:12:14.345Z,85.70
2022-07-31T17:14:48.600Z,88.30
2022-07-31T17:17:21.777Z,90.30
2022-07-31T17:19:55.305Z,87.90
2022-07-31T17:22:28.500Z,87.10
2022-07-31T17:25:05.948Z,85.90
2022-07-31T17:27:38.893Z,87.50
2022-07-31T17:30:12.624Z,87.20
2022-07-31T17:32:45.543Z,87.60
2022-07-31T17:35:19.460Z,87.20
2022-07-31T17:37:52.531Z,89.00
2022-07-31T17:40:42.358Z,89.90
2022-07-31T17:43:19.005Z,90.50
2022-07-31T17:46:09.346Z,89.50
2022-07-31T17:48:51.115Z,89.00
2022-07-31T17:51:24.299Z,88.30
2022-07-31T17:53:59.561Z,88.30
2022-07-31T17:56:33.307Z,88.90
2022-07-31T17:59:06.360Z,88.60
2022-07-31T18:01:39.520Z,88.20
2022-07-31T18:04:17.363Z,84.00
2022-07-31T18:06:54.952Z,84.60
2022-07-31T18:09:29.042Z,85.20
2022-07-31T18:12:12.184Z,85.10
2022-07-31T18:14:52.453Z,85.70
2022-07-31T18:17:32.667Z,86.70
2022-07-31T18:20:07.099Z,88.20
2022-07-31T18:22:49.720Z,89.10
2022-07-31T18:25:23.400Z,89.80
2022-07-31T18:27:57.327Z,89.60
2022-07-31T18:30:33.729Z,90.00
2022-07-31T18:33:11.220Z,90.70
2022-07-31T18:35:48.508Z,91.70
2022-07-31T18:38:21.739Z,95.10
2022-07-31T18:40:56.777Z,94.80
2022-07-31T18:43:30.448Z,94.80
2022-07-31T18:46:03.611Z,95.40
2022-07-31T18:48:36.852Z,95.40
2022-07-31T18:51:10.337Z,94.80
2022-07-31T18:53:43.526Z,94.90
2022-07-31T18:56:16.971Z,95.00
2022-07-31T18:58:50.745Z,95.70
2022-07-31T19:01:24.068Z,96.30
2022-07-31T19:03:57.362Z,95.60
2022-07-31T19:06:30.468Z,96.00
2022-07-31T19:09:04.318Z,96.30
2022-07-31T19:11:37.341Z,98.30
2022-07-31T19:14:10.627Z,98.60
2022-07-31T19:16:44.397Z,99.90
2022-07-31T19:19:17.569Z,99.90
2022-07-31T19:21:50.751Z,99.90
2022-07-31T19:24:24.297Z,99.90
2022-07-31T19:26:57.449Z,99.90
2022-07-31T19:29:31.057Z,99.90
2022-07-31T19:32:04.394Z,99.90
2022-07-31T19:34:37.797Z,99.90
2022-07-31T19:37:13.858Z,99.90
2022-07-31T19:39:47.291Z,99.90
2022-07-31T19:42:20.543Z,99.90
2022-07-31T19:44:53.767Z,99.90
2022-07-31T19:47:27.046Z,99.90
2022-07-31T19:50:02.381Z,99.90
2022-07-31T19:52:35.541Z,99.90
2022-07-31T19:55:10.862Z,99.90
2022-07-31T19:57:44.831Z,99.90
2022-07-31T20:00:19.104Z,99.90
2022-07-31T20:02:52.500Z,99.90
2022-07-31T20:05:25.614Z,99.90
2022-07-31T20:07:58.776Z,99.90
2022-07-31T20:10:31.803Z,99.90
2022-07-31T20:13:05.036Z,99.90
2022-07-31T20:15:50.676Z,99.90
2022-07-31T20:18:29.219Z,99.90
2022-07-31T20:21:09.424Z,99.90
2022-07-31T20:23:42.789Z,99.90
2022-07-31T20:26:17.678Z,99.90
2022-07-31T20:28:51.062Z,99.90
2022-07-31T20:31:24.807Z,99.90
2022-07-31T20:33:58.288Z,99.90
2022-07-31T20:36:31.937Z,99.90
2022-07-31T20:39:05.124Z,99.90
2022-07-31T20:41:38.476Z,99.90
2022-07-31T20:44:11.634Z,99.90
2022-07-31T20:46:45.152Z,99.90
2022-07-31T20:49:19.887Z,99.90
2022-07-31T20:52:09.025Z,99.90
2022-07-31T20:54:42.339Z,99.90
2022-07-31T20:57:16.427Z,99.90
2022-07-31T20:59:49.663Z,99.90
2022-07-31T21:02:22.853Z,99.90
2022-07-31T21:04:55.891Z,99.90
2022-07-31T21:07:30.295Z,99.90
2022-07-31T21:10:05.185Z,99.90
2022-07-31T21:12:38.368Z,99.90
2022-07-31T21:15:18.739Z,99.90
2022-07-31T21:18:05.704Z,99.90
2022-07-31T21:20:51.523Z,99.90
2022-07-31T21:23:27.475Z,99.90
2022-07-31T21:26:02.192Z,99.90
2022-07-31T21:28:36.226Z,99.90
2022-07-31T21:31:09.623Z,99.90
2022-07-31T21:33:43.013Z,99.90
2022-07-31T21:36:16.173Z,99.90
2022-07-31T21:38:49.255Z,99.90
2022-07-31T21:41:23.500Z,99.90
2022-07-31T21:43:58.944Z,99.90
2022-07-31T21:46:38.306Z,99.90
2022-07-31T21:49:13.184Z,99.90
2022-07-31T21:51:46.494Z,99.90
2022-07-31T21:54:19.456Z,99.90
2022-07-31T21:56:52.552Z,99.90
2022-07-31T21:59:25.560Z,99.90
2022-07-31T22:02:02.193Z,99.90
2022-07-31T22:04:35.696Z,99.90
2022-07-31T22:07:34.390Z,99.90
2022-07-31T22:10:11.234Z,99.90
2022-07-31T22:12:45.357Z,99.90
2022-07-31T22:15:18.808Z,99.90
2022-07-31T22:17:51.747Z,99.90
2022-07-31T22:20:25.257Z,99.90
2022-07-31T22:22:58.541Z,99.90
2022-07-31T22:25:31.722Z,99.90
2022-07-31T22:28:05.186Z,99.90
2022-07-31T22:30:38.358Z,99.90
2022-07-31T22:33:11.388Z,99.90
2022-07-31T22:35:44.499Z,99.90
2022-07-31T22:38:17.689Z,99.90
2022-07-31T22:40:57.272Z,99.90
2022-07-31T22:44:12.551Z,99.90
2022-07-31T22:46:29.143Z,99.90
2022-07-31T22:49:12.868Z,99.90
2022-07-31T22:51:50.245Z,99.90
2022-07-31T22:54:27.438Z,99.90
2022-07-31T22:57:04.778Z,99.90
2022-07-31T22:59:48.164Z,99.90
2022-07-31T23:02:23.160Z,99.90
2022-07-31T23:04:56.291Z,99.90
2022-07-31T23:07:29.266Z,99.90
2022-07-31T23:10:02.390Z,99.90
2022-07-31T23:12:35.533Z,99.90
2022-07-31T23:15:08.654Z,99.90
2022-07-31T23:17:41.743Z,99.90
2022-07-31T23:20:14.830Z,99.90
2022-07-31T23:22:48.049Z,99.90
2022-07-31T23:25:22.516Z,99.90
2022-07-31T23:27:55.693Z,99.90
2022-07-31T23:30:28.601Z,99.90
2022-07-31T23:33:01.751Z,99.90
2022-07-31T23:35:34.650Z,99.90
2022-07-31T23:38:07.672Z,99.90
2022-07-31T23:40:40.781Z,99.90
2022-07-31T23:43:16.178Z,99.90
2022-07-31T23:45:52.528Z,99.90
2022-07-31T23:48:29.933Z,99.90
2022-07-31T23:51:03.284Z,99.90
2022-07-31T23:53:36.349Z,99.90
2022-07-31T23:56:18.452Z,99.90
2022-07-31T23:58:52.268Z,99.90
